Time;durP1;ratioP1;P1;durP2;ratioP2;P2;SDS_P1;SDS_P2;PMS_P1;PMS_P2;Temp;Humidity;BMP_temperature;BMP_pressure;BME280_temperature;BME280_humidity;BME280_pressure;Samples;Min_cycle;Max_cycle;Signal;HPM_P1;HPM_P2
2022/05/13 00:01:26;;;;;;;;;;;27.70;46.10;;;;;;487053;245;1142;-77
2022/05/13 00:03:28;;;;;;;;;;;27.70;46.10;;;;;;486926;245;1065;-77
2022/05/13 00:05:29;;;;;;;;;;;27.70;46.20;;;;;;486897;243;2116;-77
2022/05/13 00:07:31;;;;;;;;;;;27.70;46.10;;;;;;487191;245;1060;-77
2022/05/13 00:11:51;;;;;;;;;;;27.70;46.10;;;;;;486979;245;1171;-77
2022/05/13 00:13:53;;;;;;;;;;;27.70;46.10;;;;;;487098;245;1192;-77
2022/05/13 00:15:55;;;;;;;;;;;27.70;46.00;;;;;;487239;243;1213;-77
2022/05/13 00:17:56;;;;;;;;;;;27.70;46.10;;;;;;487259;245;1176;-77
2022/05/13 00:19:57;;;;;;;;;;;27.70;46.10;;;;;;487234;245;1514;-77
2022/05/13 00:21:59;;;;;;;;;;;27.80;46.10;;;;;;487044;245;1123;-77
2022/05/13 00:24:00;;;;;;;;;;;27.70;46.10;;;;;;487072;245;2198;-77
2022/05/13 00:26:02;;;;;;;;;;;27.80;46.10;;;;;;487109;245;1410;-77
2022/05/13 00:28:03;;;;;;;;;;;27.80;46.00;;;;;;487064;245;1427;-77
2022/05/13 00:30:06;;;;;;;;;;;27.70;46.00;;;;;;486987;245;1175;-77
2022/05/13 00:32:06;;;;;;;;;;;27.70;46.00;;;;;;487000;245;1390;-77
2022/05/13 00:34:07;;;;;;;;;;;27.80;46.10;;;;;;487009;245;1112;-77
2022/05/13 00:36:09;;;;;;;;;;;27.80;46.10;;;;;;487050;245;1443;-77
2022/05/13 00:38:11;;;;;;;;;;;27.80;46.10;;;;;;486907;245;1077;-77
2022/05/13 00:40:12;;;;;;;;;;;27.70;46.10;;;;;;487064;245;1134;-77
2022/05/13 00:42:17;;;;;;;;;;;27.70;46.10;;;;;;487124;245;1092;-77
2022/05/13 00:44:16;;;;;;;;;;;27.70;46.20;;;;;;486817;244;2182;-77
2022/05/13 00:46:18;;;;;;;;;;;27.70;46.20;;;;;;487026;245;1311;-77
2022/05/13 00:48:19;;;;;;;;;;;27.70;46.20;;;;;;487032;245;1113;-77
2022/05/13 00:50:21;;;;;;;;;;;27.70;46.10;;;;;;487147;245;1223;-77
2022/05/13 00:52:22;;;;;;;;;;;27.70;46.30;;;;;;487117;245;1132;-77
2022/05/13 00:54:23;;;;;;;;;;;27.70;46.20;;;;;;487042;245;1153;-77
2022/05/13 00:56:25;;;;;;;;;;;27.70;46.10;;;;;;487053;245;1089;-77
2022/05/13 00:58:26;;;;;;;;;;;27.80;46.20;;;;;;487028;245;1129;-77
2022/05/13 01:00:27;;;;;;;;;;;27.80;46.30;;;;;;487140;245;1170;-77
2022/05/13 01:02:29;;;;;;;;;;;27.70;46.20;;;;;;486888;245;1183;-77
2022/05/13 01:04:30;;;;;;;;;;;27.70;46.20;;;;;;487079;245;2123;-77
2022/05/13 01:06:32;;;;;;;;;;;27.70;46.20;;;;;;487085;245;1148;-77
2022/05/13 01:08:33;;;;;;;;;;;27.70;46.20;;;;;;486907;245;1131;-77
2022/05/13 01:10:34;;;;;;;;;;;27.70;46.30;;;;;;486877;245;1210;-77
2022/05/13 01:12:36;;;;;;;;;;;27.70;46.30;;;;;;486945;245;1098;-77
2022/05/13 01:14:37;;;;;;;;;;;27.80;46.30;;;;;;487002;243;1194;-77
2022/05/13 01:18:58;;;;;;;;;;;27.70;46.30;;;;;;486996;245;1151;-76
2022/05/13 01:20:59;;;;;;;;;;;27.70;46.30;;;;;;486792;245;1137;-77
2022/05/13 01:23:01;;;;;;;;;;;27.70;46.30;;;;;;486953;245;1264;-76
2022/05/13 01:25:03;;;;;;;;;;;27.70;46.30;;;;;;487052;245;2186;-77
2022/05/13 01:27:04;;;;;;;;;;;27.70;46.30;;;;;;487086;245;1106;-77
2022/05/13 01:29:06;;;;;;;;;;;27.70;46.30;;;;;;486994;245;1224;-77
2022/05/13 01:31:08;;;;;;;;;;;27.70;46.40;;;;;;486945;245;1112;-77
2022/05/13 01:33:10;;;;;;;;;;;27.70;46.40;;;;;;486941;245;1180;-77
2022/05/13 01:35:13;;;;;;;;;;;27.70;46.30;;;;;;487086;245;1123;-77
2022/05/13 01:37:13;;;;;;;;;;;27.70;46.30;;;;;;486828;245;1454;-77
2022/05/13 01:39:14;;;;;;;;;;;27.70;46.30;;;;;;487091;245;1200;-77
2022/05/13 01:41:16;;;;;;;;;;;27.80;46.30;;;;;;487034;245;1079;-77
2022/05/13 01:43:17;;;;;;;;;;;27.80;46.30;;;;;;487042;245;1201;-77
2022/05/13 01:45:19;;;;;;;;;;;27.80;46.30;;;;;;486973;245;2202;-77
2022/05/13 01:47:21;;;;;;;;;;;27.80;46.20;;;;;;487054;245;1213;-77
2022/05/13 01:49:22;;;;;;;;;;;27.80;46.20;;;;;;487129;245;1086;-77
2022/05/13 01:51:23;;;;;;;;;;;27.80;46.20;;;;;;486938;245;1201;-77
2022/05/13 01:53:25;;;;;;;;;;;27.80;46.20;;;;;;487037;243;1140;-77
2022/05/13 01:55:26;;;;;;;;;;;27.70;46.20;;;;;;487035;245;1167;-77
2022/05/13 01:57:27;;;;;;;;;;;27.70;46.20;;;;;;487123;245;1087;-77
2022/05/13 01:59:29;;;;;;;;;;;27.80;46.20;;;;;;487186;245;1181;-77
2022/05/13 02:01:30;;;;;;;;;;;27.70;46.20;;;;;;486970;245;1161;-77
2022/05/13 02:03:47;;;;;;;;;;;27.70;46.10;;;;;;487054;245;1202;-77
2022/05/13 02:05:48;;;;;;;;;;;27.80;46.10;;;;;;486917;245;2187;-77
2022/05/13 02:07:49;;;;;;;;;;;27.70;46.10;;;;;;487036;245;1191;-77
2022/05/13 02:09:51;;;;;;;;;;;27.80;46.10;;;;;;486926;245;1104;-77
2022/05/13 02:11:53;;;;;;;;;;;27.80;46.10;;;;;;487009;245;1200;-77
2022/05/13 02:13:55;;;;;;;;;;;27.80;46.10;;;;;;486908;245;1227;-77
2022/05/13 02:15:56;;;;;;;;;;;27.70;46.00;;;;;;486792;245;1135;-77
2022/05/13 02:17:58;;;;;;;;;;;27.80;46.10;;;;;;487142;245;1093;-77
2022/05/13 02:20:00;;;;;;;;;;;27.70;46.00;;;;;;486804;245;1096;-77
2022/05/13 02:22:01;;;;;;;;;;;27.80;46.10;;;;;;486940;245;1162;-77
2022/05/13 02:24:03;;;;;;;;;;;27.80;46.00;;;;;;486892;245;1109;-77
2022/05/13 02:26:05;;;;;;;;;;;27.80;46.00;;;;;;486958;245;2190;-76
2022/05/13 02:28:07;;;;;;;;;;;27.70;45.90;;;;;;486940;245;1044;-77
2022/05/13 02:30:08;;;;;;;;;;;27.80;46.00;;;;;;486960;245;1187;-77
2022/05/13 02:32:09;;;;;;;;;;;27.80;46.00;;;;;;486958;245;1220;-77
2022/05/13 02:34:12;;;;;;;;;;;27.80;45.90;;;;;;486784;245;1115;-77
2022/05/13 02:36:13;;;;;;;;;;;27.80;45.90;;;;;;486784;243;1161;-76
2022/05/13 02:38:15;;;;;;;;;;;27.80;45.90;;;;;;486835;245;1212;-77
2022/05/13 02:40:17;;;;;;;;;;;27.80;45.80;;;;;;486907;245;1060;-77
2022/05/13 02:42:19;;;;;;;;;;;27.80;45.90;;;;;;486867;245;1036;-77
2022/05/13 02:44:21;;;;;;;;;;;27.80;45.80;;;;;;486851;245;1140;-77
2022/05/13 02:46:21;;;;;;;;;;;27.80;45.80;;;;;;486839;245;2182;-77
2022/05/13 02:48:23;;;;;;;;;;;27.80;45.90;;;;;;486910;245;1113;-77
2022/05/13 02:50:25;;;;;;;;;;;27.80;45.90;;;;;;486897;245;1118;-77
2022/05/13 02:52:26;;;;;;;;;;;27.80;45.80;;;;;;487071;245;1328;-77
2022/05/13 02:54:28;;;;;;;;;;;27.80;45.90;;;;;;486922;245;1146;-77
2022/05/13 02:56:29;;;;;;;;;;;27.80;45.80;;;;;;486899;245;1078;-77
2022/05/13 02:58:31;;;;;;;;;;;27.80;45.80;;;;;;487096;245;1219;-77
2022/05/13 03:00:33;;;;;;;;;;;27.80;45.90;;;;;;486890;245;1352;-77
2022/05/13 03:02:34;;;;;;;;;;;27.70;45.80;;;;;;486821;245;1157;-77
2022/05/13 03:04:35;;;;;;;;;;;27.80;45.90;;;;;;487062;245;1046;-77
2022/05/13 03:06:36;;;;;;;;;;;27.80;45.80;;;;;;486917;245;2197;-77
2022/05/13 03:08:38;;;;;;;;;;;27.80;45.80;;;;;;486954;245;1315;-77
2022/05/13 03:10:39;;;;;;;;;;;27.80;45.80;;;;;;487103;245;1180;-77
2022/05/13 03:12:40;;;;;;;;;;;27.70;45.70;;;;;;486985;245;1158;-77
2022/05/13 03:14:42;;;;;;;;;;;27.80;45.80;;;;;;487075;245;1206;-77
2022/05/13 03:16:43;;;;;;;;;;;27.80;45.70;;;;;;487032;245;1099;-77
2022/05/13 03:18:44;;;;;;;;;;;27.80;45.70;;;;;;486927;245;1163;-77
2022/05/13 03:20:46;;;;;;;;;;;27.80;45.60;;;;;;487055;245;1197;-77
2022/05/13 03:22:47;;;;;;;;;;;27.80;45.60;;;;;;486968;245;1257;-77
2022/05/13 03:24:49;;;;;;;;;;;27.80;45.60;;;;;;486992;245;1155;-77
2022/05/13 03:26:52;;;;;;;;;;;27.70;45.50;;;;;;486930;245;2191;-77
2022/05/13 03:28:53;;;;;;;;;;;27.80;45.60;;;;;;486884;245;1165;-77
2022/05/13 03:30:54;;;;;;;;;;;27.80;45.50;;;;;;487129;245;1183;-77
2022/05/13 03:32:56;;;;;;;;;;;27.80;45.50;;;;;;487004;245;1195;-77
2022/05/13 03:34:57;;;;;;;;;;;27.80;45.50;;;;;;487125;245;1172;-77
2022/05/13 03:36:59;;;;;;;;;;;27.70;45.40;;;;;;486956;245;1130;-77
2022/05/13 03:39:01;;;;;;;;;;;27.80;45.50;;;;;;487039;245;1162;-77
2022/05/13 03:41:03;;;;;;;;;;;27.80;45.40;;;;;;486953;245;1089;-77
2022/05/13 03:43:04;;;;;;;;;;;27.80;45.40;;;;;;486864;245;1220;-77
2022/05/13 03:45:06;;;;;;;;;;;27.70;45.30;;;;;;486965;243;2195;-77
2022/05/13 03:47:07;;;;;;;;;;;27.80;45.30;;;;;;486899;245;1170;-77
2022/05/13 03:49:08;;;;;;;;;;;27.80;45.30;;;;;;487130;245;1121;-77
2022/05/13 03:51:09;;;;;;;;;;;27.80;45.30;;;;;;487043;245;1140;-76
2022/05/13 03:53:11;;;;;;;;;;;27.80;45.20;;;;;;487093;245;1097;-77
2022/05/13 03:55:12;;;;;;;;;;;27.80;45.20;;;;;;486970;245;1058;-77
2022/05/13 03:57:14;;;;;;;;;;;27.80;45.20;;;;;;486881;245;1093;-77
2022/05/13 03:59:15;;;;;;;;;;;27.80;45.10;;;;;;486984;245;1095;-77
2022/05/13 04:01:16;;;;;;;;;;;27.80;45.10;;;;;;487020;245;1383;-77
2022/05/13 04:03:17;;;;;;;;;;;27.80;45.10;;;;;;487033;245;1071;-77
2022/05/13 04:09:57;;;;;;;;;;;27.70;45.00;;;;;;487092;245;1167;-77
2022/05/13 04:16:38;;;;;;;;;;;27.80;45.10;;;;;;487230;245;1098;-76
2022/05/13 04:18:39;;;;;;;;;;;27.80;45.20;;;;;;487172;245;1128;-77
2022/05/13 04:20:40;;;;;;;;;;;27.70;45.10;;;;;;487011;245;1137;-77
2022/05/13 04:22:42;;;;;;;;;;;27.70;45.10;;;;;;487072;245;1124;-77
2022/05/13 04:24:43;;;;;;;;;;;27.80;45.20;;;;;;487112;245;1136;-77
2022/05/13 04:26:44;;;;;;;;;;;27.70;45.10;;;;;;487035;245;2194;-77
2022/05/13 04:28:45;;;;;;;;;;;27.80;45.20;;;;;;487051;245;1103;-77
2022/05/13 04:30:47;;;;;;;;;;;27.80;45.20;;;;;;487008;245;1152;-77
2022/05/13 04:32:48;;;;;;;;;;;27.80;45.10;;;;;;486948;245;1183;-77
2022/05/13 04:34:49;;;;;;;;;;;27.80;45.10;;;;;;486946;245;1191;-77
2022/05/13 04:36:51;;;;;;;;;;;27.80;45.10;;;;;;486939;245;1120;-77
2022/05/13 04:38:52;;;;;;;;;;;27.80;45.00;;;;;;487152;245;1181;-77
2022/05/13 04:40:54;;;;;;;;;;;27.80;45.10;;;;;;487138;245;1288;-77
2022/05/13 04:42:56;;;;;;;;;;;27.80;45.10;;;;;;486940;245;1111;-77
2022/05/13 04:44:57;;;;;;;;;;;27.80;45.10;;;;;;486968;245;1325;-77
2022/05/13 04:46:58;;;;;;;;;;;27.80;45.20;;;;;;486872;245;2182;-77
2022/05/13 04:48:59;;;;;;;;;;;27.80;45.10;;;;;;487018;245;1171;-76
2022/05/13 04:51:01;;;;;;;;;;;27.80;45.10;;;;;;486969;245;1112;-77
2022/05/13 04:53:02;;;;;;;;;;;27.70;45.00;;;;;;487064;245;1094;-77
2022/05/13 04:55:03;;;;;;;;;;;27.80;45.10;;;;;;486996;245;1158;-77
2022/05/13 04:57:04;;;;;;;;;;;27.80;45.10;;;;;;487135;245;1077;-77
2022/05/13 04:59:06;;;;;;;;;;;27.80;45.10;;;;;;486943;245;1157;-77
2022/05/13 05:01:07;;;;;;;;;;;27.80;45.00;;;;;;486824;245;1107;-77
2022/05/13 05:03:08;;;;;;;;;;;27.80;45.00;;;;;;486876;245;1146;-77
2022/05/13 05:05:10;;;;;;;;;;;27.80;45.00;;;;;;486893;245;1076;-77
2022/05/13 05:07:11;;;;;;;;;;;27.80;44.90;;;;;;486804;245;2119;-77
2022/05/13 05:09:12;;;;;;;;;;;27.80;44.90;;;;;;486820;245;1188;-77
2022/05/13 05:11:14;;;;;;;;;;;27.80;44.90;;;;;;486824;245;1241;-77
2022/05/13 05:13:15;;;;;;;;;;;27.80;45.00;;;;;;486958;245;1198;-76
2022/05/13 05:15:16;;;;;;;;;;;27.80;45.00;;;;;;486760;245;1185;-77
2022/05/13 05:17:18;;;;;;;;;;;27.80;45.00;;;;;;486828;245;1124;-77
2022/05/13 05:19:19;;;;;;;;;;;27.80;45.10;;;;;;486625;245;1230;-76
2022/05/13 05:21:20;;;;;;;;;;;27.80;45.10;;;;;;486792;245;1098;-77
2022/05/13 05:23:21;;;;;;;;;;;27.80;45.20;;;;;;486851;245;1230;-76
2022/05/13 05:25:28;;;;;;;;;;;27.80;45.20;;;;;;486738;245;1144;-77
2022/05/13 05:27:24;;;;;;;;;;;27.80;45.20;;;;;;486347;245;2177;-77
2022/05/13 05:29:26;;;;;;;;;;;27.80;45.20;;;;;;486859;245;1113;-77
2022/05/13 05:31:27;;;;;;;;;;;27.70;45.20;;;;;;486927;245;1172;-77
2022/05/13 05:33:28;;;;;;;;;;;27.80;45.20;;;;;;486859;245;1097;-76
2022/05/13 05:35:29;;;;;;;;;;;27.80;45.30;;;;;;486595;245;1151;-76
2022/05/13 05:37:31;;;;;;;;;;;27.80;45.30;;;;;;486765;245;1153;-76
2022/05/13 05:39:32;;;;;;;;;;;27.80;45.20;;;;;;486880;245;1124;-76
2022/05/13 05:41:33;;;;;;;;;;;27.80;45.20;;;;;;486753;245;1126;-77
2022/05/13 05:43:35;;;;;;;;;;;27.80;45.30;;;;;;486906;245;1170;-77
2022/05/13 05:45:38;;;;;;;;;;;27.80;45.30;;;;;;486699;245;1154;-77
2022/05/13 05:47:38;;;;;;;;;;;27.80;45.20;;;;;;486846;245;2181;-77
2022/05/13 05:49:39;;;;;;;;;;;27.10;42.90;;;;;;486806;245;1144;-77
2022/05/13 05:51:41;;;;;;;;;;;26.10;44.90;;;;;;486890;245;1190;-77
2022/05/13 05:58:21;;;;;;;;;;;22.70;50.90;;;;;;486898;245;1184;-76
2022/05/13 06:00:22;;;;;;;;;;;21.90;51.60;;;;;;486993;245;1068;-76
2022/05/13 06:02:23;;;;;;;;;;;21.20;52.40;;;;;;487010;245;1205;-76
2022/05/13 06:04:25;;;;;;;;;;;20.60;53.30;;;;;;486777;245;1043;-76
2022/05/13 06:06:26;;;;;;;;;;;20.00;54.20;;;;;;486716;245;2178;-76
2022/05/13 06:08:27;;;;;;;;;;;19.50;55.40;;;;;;486918;245;1171;-76
2022/05/13 06:10:29;;;;;;;;;;;19.10;56.10;;;;;;486874;245;987;-77
2022/05/13 06:12:30;;;;;;;;;;;18.80;56.60;;;;;;486816;245;1223;-77
2022/05/13 06:14:31;;;;;;;;;;;18.40;57.00;;;;;;486770;245;1098;-76
2022/05/13 06:16:32;;;;;;;;;;;18.00;57.70;;;;;;486717;245;1295;-77
2022/05/13 06:18:34;;;;;;;;;;;18.00;57.90;;;;;;486778;245;1221;-76
2022/05/13 06:20:35;;;;;;;;;;;18.00;57.60;;;;;;486802;245;1205;-77
2022/05/13 06:22:36;;;;;;;;;;;17.90;57.60;;;;;;486644;245;1093;-77
2022/05/13 06:24:39;;;;;;;;;;;17.90;58.00;;;;;;486887;245;1120;-77
2022/05/13 06:26:40;;;;;;;;;;;17.90;58.40;;;;;;486676;245;2128;-77
2022/05/13 06:28:42;;;;;;;;;;;18.00;58.80;;;;;;486784;245;1112;-77
2022/05/13 06:30:43;;;;;;;;;;;17.90;58.80;;;;;;486904;245;1221;-77
2022/05/13 06:32:44;;;;;;;;;;;17.90;58.80;;;;;;486936;245;1142;-77
2022/05/13 06:34:46;;;;;;;;;;;17.90;58.70;;;;;;486858;245;1231;-77
2022/05/13 06:36:47;;;;;;;;;;;17.90;58.70;;;;;;486922;245;1153;-77
2022/05/13 06:38:48;;;;;;;;;;;17.90;58.60;;;;;;486874;245;1165;-77
2022/05/13 06:40:50;;;;;;;;;;;17.90;58.50;;;;;;486748;245;1141;-77
2022/05/13 06:42:51;;;;;;;;;;;17.90;58.40;;;;;;486829;245;1183;-77
2022/05/13 06:44:52;;;;;;;;;;;17.80;58.50;;;;;;486677;245;1105;-77
2022/05/13 06:46:54;;;;;;;;;;;17.80;58.50;;;;;;486729;245;2187;-77
2022/05/13 06:48:55;;;;;;;;;;;17.70;58.60;;;;;;486683;245;1323;-77
2022/05/13 06:50:56;;;;;;;;;;;17.70;58.70;;;;;;486690;245;1063;-77
2022/05/13 06:52:57;;;;;;;;;;;17.70;58.80;;;;;;486845;245;1226;-77
2022/05/13 06:54:59;;;;;;;;;;;17.60;58.80;;;;;;486777;245;1101;-77
2022/05/13 06:57:00;;;;;;;;;;;17.60;59.00;;;;;;486577;245;1324;-77
2022/05/13 06:59:02;;;;;;;;;;;17.50;59.10;;;;;;486650;245;1113;-77
2022/05/13 07:01:03;;;;;;;;;;;17.50;59.20;;;;;;486566;245;1118;-77
2022/05/13 07:03:04;;;;;;;;;;;17.40;59.40;;;;;;486752;245;1103;-77
2022/05/13 07:05:05;;;;;;;;;;;17.40;59.50;;;;;;486884;245;1297;-77
2022/05/13 07:07:07;;;;;;;;;;;17.40;59.60;;;;;;486816;243;2199;-77
2022/05/13 07:09:08;;;;;;;;;;;17.30;59.80;;;;;;486547;245;1214;-77
2022/05/13 07:11:10;;;;;;;;;;;17.30;60.00;;;;;;486828;245;1154;-77
2022/05/13 07:13:11;;;;;;;;;;;17.30;60.40;;;;;;486585;245;1126;-77
2022/05/13 07:15:12;;;;;;;;;;;17.30;60.80;;;;;;486537;245;1061;-77
2022/05/13 07:17:14;;;;;;;;;;;17.30;61.10;;;;;;486639;245;1176;-77
2022/05/13 07:19:15;;;;;;;;;;;17.30;62.40;;;;;;486559;245;1151;-77
2022/05/13 07:21:16;;;;;;;;;;;17.30;63.40;;;;;;486515;245;1192;-77
2022/05/13 07:23:18;;;;;;;;;;;17.30;63.90;;;;;;486501;245;1112;-77
2022/05/13 07:25:19;;;;;;;;;;;17.40;64.10;;;;;;486460;245;1027;-77
2022/05/13 07:27:20;;;;;;;;;;;17.50;64.00;;;;;;486440;245;2174;-77
2022/05/13 07:29:22;;;;;;;;;;;17.50;63.50;;;;;;486535;245;970;-77
2022/05/13 07:31:23;;;;;;;;;;;17.50;62.30;;;;;;486549;245;1394;-77
2022/05/13 07:33:25;;;;;;;;;;;17.50;62.80;;;;;;486523;245;1300;-77
2022/05/13 07:35:26;;;;;;;;;;;17.50;63.10;;;;;;486583;245;1085;-77
2022/05/13 07:37:27;;;;;;;;;;;17.50;62.90;;;;;;486435;245;1205;-77
2022/05/13 07:41:48;;;;;;;;;;;17.60;62.60;;;;;;486576;245;1244;-77
2022/05/13 07:43:49;;;;;;;;;;;17.60;62.10;;;;;;486683;245;1125;-77
2022/05/13 07:45:50;;;;;;;;;;;17.60;61.90;;;;;;486507;245;1325;-77
2022/05/13 07:47:52;;;;;;;;;;;17.80;62.10;;;;;;486606;245;2126;-77
2022/05/13 07:49:53;;;;;;;;;;;18.10;61.30;;;;;;486700;245;1200;-77
2022/05/13 07:51:54;;;;;;;;;;;18.40;60.40;;;;;;486760;245;1200;-77
2022/05/13 07:53:56;;;;;;;;;;;18.60;59.50;;;;;;486798;245;1085;-77
2022/05/13 07:55:57;;;;;;;;;;;18.90;58.50;;;;;;486563;245;1156;-77
2022/05/13 07:57:58;;;;;;;;;;;19.00;57.90;;;;;;486685;245;1061;-77
2022/05/13 08:02:19;;;;;;;;;;;19.30;57.80;;;;;;486537;243;1142;-78
2022/05/13 08:04:21;;;;;;;;;;;19.40;57.40;;;;;;486924;245;1103;-77
2022/05/13 08:06:22;;;;;;;;;;;19.50;57.00;;;;;;486800;245;1161;-77
2022/05/13 08:08:23;;;;;;;;;;;19.50;56.40;;;;;;486696;245;2181;-77
2022/05/13 08:10:24;;;;;;;;;;;19.50;55.40;;;;;;486643;245;1189;-77
2022/05/13 08:12:26;;;;;;;;;;;19.50;56.00;;;;;;486825;245;1081;-77
2022/05/13 08:14:27;;;;;;;;;;;19.50;56.00;;;;;;486473;245;1150;-77
2022/05/13 08:16:29;;;;;;;;;;;19.40;56.10;;;;;;486534;245;1143;-77
2022/05/13 08:18:30;;;;;;;;;;;19.20;56.70;;;;;;486427;243;1282;-76
2022/05/13 08:20:31;;;;;;;;;;;19.10;56.80;;;;;;486533;245;1231;-77
2022/05/13 08:22:33;;;;;;;;;;;19.10;56.90;;;;;;486572;245;1173;-77
2022/05/13 08:24:34;;;;;;;;;;;19.10;56.70;;;;;;486663;245;1127;-77
2022/05/13 08:26:35;;;;;;;;;;;19.10;56.60;;;;;;486736;245;1296;-77
2022/05/13 08:28:36;;;;;;;;;;;19.20;56.50;;;;;;486775;245;2174;-77
2022/05/13 08:30:38;;;;;;;;;;;19.10;56.50;;;;;;486508;245;1137;-78
2022/05/13 08:32:39;;;;;;;;;;;19.20;56.30;;;;;;486681;245;1106;-77
2022/05/13 08:34:40;;;;;;;;;;;19.10;56.10;;;;;;486684;245;1130;-76
2022/05/13 08:36:42;;;;;;;;;;;19.20;55.90;;;;;;486730;245;1157;-77
2022/05/13 08:38:44;;;;;;;;;;;19.20;55.90;;;;;;486680;245;1476;-76
2022/05/13 08:40:45;;;;;;;;;;;19.30;55.50;;;;;;486528;245;1405;-76
2022/05/13 08:42:46;;;;;;;;;;;19.30;55.30;;;;;;486680;245;1418;-77
2022/05/13 08:44:47;;;;;;;;;;;19.30;55.50;;;;;;486416;245;1177;-77
2022/05/13 08:46:48;;;;;;;;;;;19.30;55.40;;;;;;486374;245;2131;-77
2022/05/13 08:48:50;;;;;;;;;;;19.40;55.20;;;;;;486511;245;1200;-77
2022/05/13 08:50:51;;;;;;;;;;;19.30;55.40;;;;;;486426;243;1145;-77
2022/05/13 08:53:08;;;;;;;;;;;19.30;55.70;;;;;;486635;245;1124;-77
2022/05/13 08:55:09;;;;;;;;;;;19.30;55.90;;;;;;486316;245;1438;-76
2022/05/13 08:57:10;;;;;;;;;;;19.30;55.80;;;;;;486234;245;1456;-77
2022/05/13 08:59:12;;;;;;;;;;;19.30;55.80;;;;;;486471;245;1062;-77
2022/05/13 09:01:14;;;;;;;;;;;19.30;55.60;;;;;;486522;245;1210;-77
2022/05/13 09:03:14;;;;;;;;;;;19.40;55.60;;;;;;486519;245;1403;-77
2022/05/13 09:05:16;;;;;;;;;;;19.30;55.70;;;;;;486316;245;1074;-76
2022/05/13 09:07:17;;;;;;;;;;;19.30;55.90;;;;;;486449;245;2131;-77
2022/05/13 09:09:18;;;;;;;;;;;19.40;55.60;;;;;;486486;245;1076;-77
2022/05/13 09:11:20;;;;;;;;;;;19.40;55.30;;;;;;486405;245;1155;-77
2022/05/13 09:13:21;;;;;;;;;;;19.40;55.70;;;;;;486329;245;1186;-77
2022/05/13 09:15:22;;;;;;;;;;;19.40;55.60;;;;;;486392;245;1137;-77
2022/05/13 09:17:24;;;;;;;;;;;19.30;55.60;;;;;;486368;245;1345;-76
2022/05/13 09:19:25;;;;;;;;;;;19.20;56.20;;;;;;486535;245;1180;-77
2022/05/13 09:21:26;;;;;;;;;;;19.30;56.30;;;;;;486328;245;1192;-76
2022/05/13 09:23:28;;;;;;;;;;;19.10;56.70;;;;;;486718;245;1059;-77
2022/05/13 09:25:29;;;;;;;;;;;19.00;57.10;;;;;;486773;245;1105;-77
2022/05/13 09:27:30;;;;;;;;;;;19.10;57.60;;;;;;486733;245;2194;-77
2022/05/13 09:29:31;;;;;;;;;;;19.10;58.00;;;;;;486652;245;1055;-78
2022/05/13 09:31:33;;;;;;;;;;;19.20;57.80;;;;;;486708;245;1321;-77
2022/05/13 09:33:34;;;;;;;;;;;19.20;57.40;;;;;;486742;245;1018;-77
2022/05/13 09:35:35;;;;;;;;;;;19.20;57.20;;;;;;486689;245;893;-77
2022/05/13 09:37:37;;;;;;;;;;;19.20;57.20;;;;;;486726;245;1150;-77
2022/05/13 09:39:38;;;;;;;;;;;19.20;57.10;;;;;;486729;245;1257;-77
2022/05/13 09:41:39;;;;;;;;;;;19.20;56.80;;;;;;487038;245;1331;-77
2022/05/13 09:43:41;;;;;;;;;;;19.20;56.60;;;;;;486695;245;830;-77
2022/05/13 09:45:42;;;;;;;;;;;19.10;56.60;;;;;;486957;245;1284;-77
2022/05/13 09:47:43;;;;;;;;;;;19.10;56.70;;;;;;486760;245;2190;-77
2022/05/13 09:49:46;;;;;;;;;;;19.00;56.60;;;;;;486399;243;1403;-77
2022/05/13 09:51:46;;;;;;;;;;;19.00;57.00;;;;;;486291;245;1527;-77
2022/05/13 09:53:47;;;;;;;;;;;19.00;56.50;;;;;;486536;245;1164;-77
2022/05/13 09:55:49;;;;;;;;;;;18.90;57.30;;;;;;486475;245;1143;-77
2022/05/13 09:57:50;;;;;;;;;;;18.80;57.90;;;;;;486850;245;1303;-77
2022/05/13 09:59:51;;;;;;;;;;;18.90;58.20;;;;;;486352;245;1064;-77
2022/05/13 10:01:53;;;;;;;;;;;18.90;58.00;;;;;;486609;245;1219;-77
2022/05/13 10:03:54;;;;;;;;;;;18.90;57.70;;;;;;486360;245;1185;-76
2022/05/13 10:05:55;;;;;;;;;;;18.80;57.80;;;;;;486310;245;1374;-77
2022/05/13 10:07:57;;;;;;;;;;;18.90;57.60;;;;;;486721;245;2198;-77
2022/05/13 10:14:36;;;;;;;;;;;18.90;57.00;;;;;;486410;245;1143;-76
2022/05/13 10:16:38;;;;;;;;;;;18.90;56.90;;;;;;486350;245;1192;-76
2022/05/13 10:18:39;;;;;;;;;;;18.90;57.20;;;;;;486234;245;1122;-77
2022/05/13 10:20:41;;;;;;;;;;;18.90;57.30;;;;;;486166;245;1187;-76
2022/05/13 10:22:42;;;;;;;;;;;18.80;57.60;;;;;;486168;245;1315;-77
2022/05/13 10:24:43;;;;;;;;;;;18.80;57.50;;;;;;486372;245;1191;-77
2022/05/13 10:26:45;;;;;;;;;;;18.80;57.60;;;;;;486358;245;1141;-77
2022/05/13 10:28:46;;;;;;;;;;;18.80;57.60;;;;;;486285;245;2198;-77
2022/05/13 10:30:47;;;;;;;;;;;18.80;57.30;;;;;;486457;245;1158;-77
2022/05/13 10:32:49;;;;;;;;;;;18.80;57.30;;;;;;486664;245;1083;-77
2022/05/13 10:34:51;;;;;;;;;;;18.90;57.00;;;;;;486377;245;1264;-77
2022/05/13 10:36:51;;;;;;;;;;;18.90;57.10;;;;;;486082;245;1429;-77
2022/05/13 10:38:55;;;;;;;;;;;18.90;57.40;;;;;;486459;245;1182;-77
2022/05/13 10:40:55;;;;;;;;;;;18.90;57.50;;;;;;486288;245;1225;-77
2022/05/13 10:42:56;;;;;;;;;;;18.90;57.60;;;;;;486458;245;1236;-77
2022/05/13 10:44:58;;;;;;;;;;;18.90;57.50;;;;;;486629;245;1188;-77
2022/05/13 10:47:00;;;;;;;;;;;18.90;57.30;;;;;;486596;245;1309;-77
2022/05/13 10:49:01;;;;;;;;;;;18.90;57.00;;;;;;486517;243;2198;-77
2022/05/13 10:51:03;;;;;;;;;;;18.90;57.10;;;;;;486624;245;1117;-77
2022/05/13 10:53:04;;;;;;;;;;;18.90;56.90;;;;;;486645;245;1350;-77
2022/05/13 10:55:05;;;;;;;;;;;18.90;57.00;;;;;;486429;245;1157;-77
2022/05/13 10:57:06;;;;;;;;;;;19.00;56.70;;;;;;486466;245;1193;-77
2022/05/13 10:59:08;;;;;;;;;;;18.90;57.00;;;;;;486280;245;1174;-77
2022/05/13 11:01:09;;;;;;;;;;;18.90;57.50;;;;;;486273;245;1613;-77
2022/05/13 11:03:14;;;;;;;;;;;18.90;57.20;;;;;;486630;245;1208;-77
2022/05/13 11:05:12;;;;;;;;;;;18.90;57.10;;;;;;485998;245;1329;-77
2022/05/13 11:07:13;;;;;;;;;;;18.90;57.00;;;;;;486071;245;1114;-77
2022/05/13 11:09:14;;;;;;;;;;;18.90;56.70;;;;;;486208;245;2190;-77
2022/05/13 11:11:16;;;;;;;;;;;18.90;56.50;;;;;;486281;245;1480;-77
2022/05/13 11:13:17;;;;;;;;;;;19.00;56.40;;;;;;486494;245;1334;-77
2022/05/13 11:15:18;;;;;;;;;;;18.90;56.80;;;;;;486294;245;1037;-77
2022/05/13 11:17:20;;;;;;;;;;;19.00;56.70;;;;;;486331;245;1076;-77
2022/05/13 11:19:21;;;;;;;;;;;19.00;56.50;;;;;;486336;245;1182;-77
2022/05/13 11:21:22;;;;;;;;;;;18.90;56.80;;;;;;486211;245;1172;-77
2022/05/13 11:23:24;;;;;;;;;;;18.90;56.80;;;;;;486476;245;1032;-77
2022/05/13 11:27:44;;;;;;;;;;;18.90;57.10;;;;;;486377;245;2115;-77
2022/05/13 11:29:45;;;;;;;;;;;18.80;57.60;;;;;;486111;245;1111;-77
2022/05/13 11:31:47;;;;;;;;;;;18.70;57.80;;;;;;486139;245;1154;-77
2022/05/13 11:33:48;;;;;;;;;;;18.60;57.80;;;;;;486387;245;1219;-77
2022/05/13 11:35:49;;;;;;;;;;;18.70;57.70;;;;;;486071;245;1208;-77
2022/05/13 11:37:51;;;;;;;;;;;18.60;57.70;;;;;;486048;245;1083;-77
2022/05/13 11:39:52;;;;;;;;;;;18.60;58.00;;;;;;486127;245;1152;-77
2022/05/13 11:41:53;;;;;;;;;;;18.50;58.00;;;;;;486391;245;1188;-77
2022/05/13 11:43:55;;;;;;;;;;;18.60;58.30;;;;;;486279;245;1158;-77
2022/05/13 11:45:56;;;;;;;;;;;18.60;58.20;;;;;;486348;245;1148;-77
2022/05/13 11:47:57;;;;;;;;;;;18.50;58.30;;;;;;486289;245;2181;-77
2022/05/13 11:49:59;;;;;;;;;;;18.50;58.40;;;;;;486419;245;1171;-77
2022/05/13 11:52:00;;;;;;;;;;;18.50;58.30;;;;;;486334;245;1183;-77
2022/05/13 11:54:01;;;;;;;;;;;18.40;58.50;;;;;;486234;245;1097;-78
2022/05/13 11:56:03;;;;;;;;;;;18.40;58.50;;;;;;486031;245;1115;-77
2022/05/13 11:58:06;;;;;;;;;;;18.30;58.40;;;;;;486227;245;1130;-77
2022/05/13 12:00:05;;;;;;;;;;;18.30;58.50;;;;;;486237;243;1317;-77
2022/05/13 12:02:07;;;;;;;;;;;18.30;58.80;;;;;;486160;245;1099;-77
2022/05/13 12:04:09;;;;;;;;;;;18.40;58.70;;;;;;486572;245;1179;-77
2022/05/13 12:06:10;;;;;;;;;;;18.40;58.70;;;;;;486257;245;1215;-77
2022/05/13 12:08:12;;;;;;;;;;;18.40;58.90;;;;;;486418;245;2202;-77
2022/05/13 12:10:13;;;;;;;;;;;18.30;59.00;;;;;;486351;243;1186;-78
2022/05/13 12:12:14;;;;;;;;;;;18.30;59.30;;;;;;486414;245;1068;-77
2022/05/13 12:14:15;;;;;;;;;;;18.50;59.00;;;;;;486033;245;1187;-77
2022/05/13 12:16:17;;;;;;;;;;;18.60;58.50;;;;;;486372;245;1068;-77
2022/05/13 12:18:18;;;;;;;;;;;18.50;58.80;;;;;;485851;245;1131;-77
2022/05/13 12:20:19;;;;;;;;;;;18.40;58.80;;;;;;486448;245;1297;-77
2022/05/13 12:22:21;;;;;;;;;;;18.40;59.10;;;;;;486280;245;1228;-77
2022/05/13 12:24:22;;;;;;;;;;;18.40;59.10;;;;;;486452;245;1197;-77
2022/05/13 12:26:23;;;;;;;;;;;18.50;58.90;;;;;;486419;245;1111;-77
2022/05/13 12:28:25;;;;;;;;;;;18.60;58.80;;;;;;486247;245;2126;-77